createdAt,value
2023-01-17T00:00:34.532Z,976.69
2023-01-17T00:01:34.491Z,976.74
2023-01-17T00:02:34.506Z,976.64
2023-01-17T00:03:34.485Z,976.69
2023-01-17T00:04:34.464Z,976.72
2023-01-17T00:05:34.499Z,976.74
2023-01-17T00:06:34.441Z,976.69
2023-01-17T00:07:34.425Z,976.75
2023-01-17T00:08:34.416Z,976.88
2023-01-17T00:09:34.406Z,976.88
2023-01-17T00:10:34.410Z,976.71
2023-01-17T00:11:34.372Z,976.86
2023-01-17T00:12:34.362Z,976.80
2023-01-17T00:13:34.348Z,976.91
2023-01-17T00:14:34.374Z,976.86
2023-01-17T00:15:34.334Z,976.99
2023-01-17T00:16:34.331Z,976.93
2023-01-17T00:17:34.333Z,977.21
2023-01-17T00:18:34.320Z,977.03
2023-01-17T00:19:34.319Z,977.07
2023-01-17T00:20:34.275Z,977.12
2023-01-17T00:21:34.271Z,977.13
2023-01-17T00:22:34.258Z,977.05
2023-01-17T00:23:34.281Z,977.10
2023-01-17T00:24:34.229Z,976.96
2023-01-17T00:25:34.221Z,977.13
2023-01-17T00:26:34.215Z,977.11
2023-01-17T00:27:34.192Z,977.05
2023-01-17T00:28:34.191Z,977.10
2023-01-17T00:29:34.189Z,977.26
2023-01-17T00:30:34.175Z,977.10
2023-01-17T00:31:34.264Z,977.15
2023-01-17T00:32:34.135Z,977.18
2023-01-17T00:33:34.135Z,977.13
2023-01-17T00:34:34.114Z,977.31
2023-01-17T00:35:34.151Z,977.11
2023-01-17T00:36:34.130Z,977.33
2023-01-17T00:37:34.129Z,977.26
2023-01-17T00:38:34.075Z,977.29
2023-01-17T00:39:34.070Z,977.28
2023-01-17T00:40:34.064Z,977.18
2023-01-17T00:41:34.039Z,977.26
2023-01-17T00:42:34.045Z,977.20
2023-01-17T00:43:34.028Z,977.25
2023-01-17T00:44:34.042Z,977.39
2023-01-17T00:45:34.000Z,977.37
2023-01-17T00:46:34.073Z,977.48
2023-01-17T00:47:33.986Z,977.44
2023-01-17T00:48:33.966Z,977.35
2023-01-17T00:49:33.968Z,977.46
2023-01-17T00:50:33.948Z,977.47
2023-01-17T00:51:33.975Z,977.48
2023-01-17T00:52:33.916Z,977.55
2023-01-17T00:53:33.923Z,977.55
2023-01-17T00:54:33.887Z,977.51
2023-01-17T00:55:33.879Z,977.52
2023-01-17T00:56:33.871Z,977.64
2023-01-17T00:57:33.868Z,977.63
2023-01-17T00:58:33.861Z,977.65
2023-01-17T00:59:33.941Z,977.73
2023-01-17T01:00:33.948Z,977.71
2023-01-17T01:01:34.065Z,977.74
2023-01-17T01:02:33.886Z,977.92
2023-01-17T01:03:33.803Z,977.71
2023-01-17T01:04:33.798Z,977.86
2023-01-17T01:05:33.811Z,977.86
2023-01-17T01:06:33.762Z,977.74
2023-01-17T01:07:33.766Z,977.78
2023-01-17T01:08:33.755Z,977.99
2023-01-17T01:09:33.739Z,977.89
2023-01-17T01:10:33.710Z,977.86
2023-01-17T01:11:33.707Z,977.83
2023-01-17T01:12:33.706Z,977.84
2023-01-17T01:13:33.694Z,977.93
2023-01-17T01:14:33.664Z,978.02
2023-01-17T01:15:33.666Z,977.97
2023-01-17T01:16:33.750Z,978.08
2023-01-17T01:17:33.642Z,978.01
2023-01-17T01:18:33.623Z,977.96
2023-01-17T01:19:33.655Z,978.00
2023-01-17T01:20:33.597Z,978.01
2023-01-17T01:21:33.614Z,978.09
2023-01-17T01:22:33.601Z,978.15
2023-01-17T01:23:33.607Z,978.09
2023-01-17T01:24:33.584Z,978.10
2023-01-17T01:25:33.568Z,978.10
2023-01-17T01:26:33.550Z,978.14
2023-01-17T01:27:33.538Z,978.22
2023-01-17T01:28:33.551Z,978.20
2023-01-17T01:29:33.495Z,978.18
2023-01-17T01:30:33.492Z,978.33
2023-01-17T01:31:33.613Z,978.18
2023-01-17T01:32:33.477Z,978.29
2023-01-17T01:33:33.475Z,978.27
2023-01-17T01:34:33.443Z,978.44
2023-01-17T01:35:33.444Z,978.29
2023-01-17T01:36:33.417Z,978.36
2023-01-17T01:37:33.473Z,978.43
2023-01-17T01:38:33.400Z,978.53
2023-01-17T01:39:33.416Z,978.37
2023-01-17T01:40:33.408Z,978.38
2023-01-17T01:41:33.378Z,978.33
2023-01-17T01:42:33.355Z,978.44
2023-01-17T01:43:33.355Z,978.39
2023-01-17T01:44:33.346Z,978.42
2023-01-17T01:45:33.395Z,978.66
2023-01-17T01:46:33.320Z,978.51
2023-01-17T01:47:33.329Z,978.50
2023-01-17T01:48:33.301Z,978.51
2023-01-17T01:49:33.303Z,978.53
2023-01-17T01:50:33.281Z,978.52
2023-01-17T01:51:33.266Z,978.67
2023-01-17T01:52:33.251Z,978.59
2023-01-17T01:53:33.230Z,978.59
2023-01-17T01:54:33.234Z,978.62
2023-01-17T01:55:33.268Z,978.67
2023-01-17T01:56:33.210Z,978.75
2023-01-17T01:57:33.182Z,978.63
2023-01-17T01:58:33.197Z,978.70
2023-01-17T01:59:33.173Z,978.64
2023-01-17T02:00:33.151Z,978.76
2023-01-17T02:01:33.287Z,978.70
2023-01-17T02:02:33.143Z,978.70
2023-01-17T02:03:33.162Z,978.73
2023-01-17T02:04:33.140Z,978.75
2023-01-17T02:05:33.096Z,978.88
2023-01-17T02:06:33.129Z,978.78
2023-01-17T02:07:33.075Z,978.76
2023-01-17T02:08:33.077Z,978.76
2023-01-17T02:09:33.059Z,978.69
2023-01-17T02:10:33.053Z,978.81
2023-01-17T02:11:33.057Z,978.79
2023-01-17T02:12:33.045Z,978.81
2023-01-17T02:13:33.005Z,978.83
2023-01-17T02:14:33.008Z,978.79
2023-01-17T02:15:33.001Z,978.76
2023-01-17T02:16:33.064Z,978.78
2023-01-17T02:17:32.957Z,978.84
2023-01-17T02:18:32.957Z,978.85
2023-01-17T02:19:32.968Z,978.84
2023-01-17T02:20:32.945Z,978.93
2023-01-17T02:21:32.915Z,978.87
2023-01-17T02:22:32.901Z,978.88
2023-01-17T02:23:32.911Z,978.86
2023-01-17T02:24:32.907Z,978.85
2023-01-17T02:25:32.889Z,978.91
2023-01-17T02:26:32.876Z,978.92
2023-01-17T02:27:32.875Z,978.94
2023-01-17T02:28:32.836Z,978.85
2023-01-17T02:29:32.863Z,978.89
2023-01-17T02:30:32.816Z,978.95
2023-01-17T02:31:32.832Z,978.87
2023-01-17T02:32:32.808Z,978.91
2023-01-17T02:33:32.795Z,978.89
2023-01-17T02:34:32.798Z,978.95
2023-01-17T02:35:32.794Z,978.89
2023-01-17T02:36:32.757Z,978.97
2023-01-17T02:37:32.751Z,978.92
2023-01-17T02:38:32.735Z,978.93
2023-01-17T02:39:32.714Z,978.98
2023-01-17T02:40:32.752Z,978.92
2023-01-17T02:41:32.709Z,979.00
2023-01-17T02:42:32.694Z,978.94
2023-01-17T02:43:32.707Z,978.99
2023-01-17T02:44:32.679Z,979.01
2023-01-17T02:45:32.712Z,978.96
2023-01-17T02:46:32.651Z,979.00
2023-01-17T02:47:32.621Z,979.04
2023-01-17T02:48:32.619Z,979.01
2023-01-17T02:49:32.612Z,979.06
2023-01-17T02:50:32.600Z,979.00
2023-01-17T02:51:32.603Z,978.96
2023-01-17T02:52:32.568Z,979.03
2023-01-17T02:53:32.567Z,979.09
2023-01-17T02:54:32.556Z,979.15
2023-01-17T02:55:32.540Z,979.04
2023-01-17T02:56:32.779Z,979.13
2023-01-17T02:57:32.526Z,979.19
2023-01-17T02:58:32.503Z,979.15
2023-01-17T02:59:32.539Z,979.31
2023-01-17T03:00:32.498Z,979.27
2023-01-17T03:01:32.574Z,979.22
2023-01-17T03:02:32.564Z,979.14
2023-01-17T03:03:32.447Z,979.29
2023-01-17T03:04:32.455Z,979.22
2023-01-17T03:05:32.426Z,979.19
2023-01-17T03:06:32.441Z,979.26
2023-01-17T03:07:32.403Z,979.27
2023-01-17T03:08:32.388Z,979.27
2023-01-17T03:09:32.396Z,979.27
2023-01-17T03:10:32.406Z,979.30
2023-01-17T03:11:32.386Z,979.31
2023-01-17T03:12:32.359Z,979.32
2023-01-17T03:13:32.341Z,979.41
2023-01-17T03:14:32.334Z,979.39
2023-01-17T03:15:32.361Z,979.46
2023-01-17T03:16:32.375Z,979.37
2023-01-17T03:17:32.316Z,979.46
2023-01-17T03:18:32.291Z,979.50
2023-01-17T03:19:32.290Z,979.59
2023-01-17T03:20:32.289Z,979.45
2023-01-17T03:21:32.257Z,979.60
2023-01-17T03:22:32.251Z,979.48
2023-01-17T03:23:32.230Z,979.52
2023-01-17T03:24:32.224Z,979.55
2023-01-17T03:25:32.219Z,979.53
2023-01-17T03:26:32.217Z,979.54
2023-01-17T03:27:32.195Z,979.49
2023-01-17T03:28:32.178Z,979.57
2023-01-17T03:29:32.163Z,979.50
2023-01-17T03:30:32.202Z,979.53
2023-01-17T03:31:32.184Z,979.52
2023-01-17T03:32:32.140Z,979.55
2023-01-17T03:33:32.138Z,979.51
2023-01-17T03:34:32.129Z,979.64
2023-01-17T03:35:32.094Z,979.58
2023-01-17T03:36:32.076Z,979.53
2023-01-17T03:37:32.063Z,979.59
2023-01-17T03:38:32.057Z,979.61
2023-01-17T03:39:32.042Z,979.64
2023-01-17T03:40:32.076Z,979.70
2023-01-17T03:41:32.022Z,979.64
2023-01-17T03:42:32.018Z,979.56
2023-01-17T03:43:32.022Z,979.55
2023-01-17T03:44:31.991Z,979.57
2023-01-17T03:45:32.005Z,979.55
2023-01-17T03:46:31.987Z,979.60
2023-01-17T03:47:31.980Z,979.68
2023-01-17T03:48:31.959Z,979.62
2023-01-17T03:49:31.948Z,979.65
2023-01-17T03:50:31.933Z,979.72
2023-01-17T03:51:31.918Z,979.78
2023-01-17T03:52:31.902Z,979.70
2023-01-17T03:53:31.896Z,979.74
2023-01-17T03:54:31.911Z,979.68
2023-01-17T03:55:31.866Z,979.69
2023-01-17T03:56:31.886Z,979.66
2023-01-17T03:57:31.857Z,979.68
2023-01-17T03:58:31.854Z,979.67
2023-01-17T03:59:31.817Z,979.65
2023-01-17T04:00:31.842Z,979.67
2023-01-17T04:01:31.934Z,979.71
2023-01-17T04:02:31.819Z,979.68
2023-01-17T04:03:31.807Z,979.79
2023-01-17T04:04:31.774Z,979.68
2023-01-17T04:05:31.757Z,979.69
2023-01-17T04:06:31.812Z,979.67
2023-01-17T04:07:31.777Z,979.65
2023-01-17T04:08:31.744Z,979.69
2023-01-17T04:09:31.703Z,979.74
2023-01-17T04:10:31.703Z,979.68
2023-01-17T04:11:31.707Z,979.66
2023-01-17T04:12:31.681Z,979.70
2023-01-17T04:13:31.661Z,979.72
2023-01-17T04:14:31.667Z,979.70
2023-01-17T04:15:31.664Z,979.67
2023-01-17T04:16:31.683Z,979.67
2023-01-17T04:17:31.634Z,979.66
2023-01-17T04:18:31.617Z,979.70
2023-01-17T04:19:31.620Z,979.65
2023-01-17T04:20:31.609Z,979.65
2023-01-17T04:21:31.564Z,979.61
2023-01-17T04:22:31.581Z,979.61
2023-01-17T04:23:31.551Z,979.57
2023-01-17T04:24:31.552Z,979.59
2023-01-17T04:25:31.534Z,979.58
2023-01-17T04:26:31.549Z,979.58
2023-01-17T04:27:31.503Z,979.59
2023-01-17T04:28:31.531Z,979.56
2023-01-17T04:29:31.480Z,979.57
2023-01-17T04:30:31.571Z,979.60
2023-01-17T04:31:31.538Z,979.64
2023-01-17T04:32:31.448Z,979.72
2023-01-17T04:33:31.449Z,979.69
2023-01-17T04:34:31.439Z,979.68
2023-01-17T04:35:31.452Z,979.68
2023-01-17T04:36:31.425Z,979.68
2023-01-17T04:37:31.406Z,979.79
2023-01-17T04:38:31.381Z,979.76
2023-01-17T04:39:31.410Z,979.77
2023-01-17T04:40:31.378Z,979.76
2023-01-17T04:41:31.350Z,979.73
2023-01-17T04:42:31.343Z,979.77
2023-01-17T04:43:31.350Z,979.77
2023-01-17T04:44:31.328Z,979.78
2023-01-17T04:45:31.320Z,979.81
2023-01-17T04:46:31.289Z,979.82
2023-01-17T04:47:31.300Z,979.82
2023-01-17T04:48:31.281Z,979.83
2023-01-17T04:49:31.291Z,979.81
2023-01-17T04:50:31.250Z,979.78
2023-01-17T04:51:31.273Z,979.86
2023-01-17T04:52:31.244Z,979.85
2023-01-17T04:53:31.215Z,979.85
2023-01-17T04:54:31.225Z,979.85
2023-01-17T04:55:31.251Z,979.85
2023-01-17T04:56:31.187Z,979.81
2023-01-17T04:57:31.176Z,979.81
2023-01-17T04:58:31.158Z,979.81
2023-01-17T04:59:31.160Z,979.81
2023-01-17T05:00:31.132Z,979.87
2023-01-17T05:01:31.279Z,979.85
2023-01-17T05:02:31.166Z,979.86
2023-01-17T05:03:31.111Z,979.87
2023-01-17T05:04:31.096Z,979.88
2023-01-17T05:05:31.073Z,979.93
2023-01-17T05:06:31.076Z,979.92
2023-01-17T05:07:31.078Z,979.89
2023-01-17T05:08:31.052Z,979.94
2023-01-17T05:09:31.039Z,979.96
2023-01-17T05:10:31.022Z,979.90
2023-01-17T05:11:31.036Z,979.92
2023-01-17T05:12:31.002Z,979.88
2023-01-17T05:13:31.007Z,979.91
2023-01-17T05:14:30.992Z,979.96
2023-01-17T05:15:31.028Z,979.90
2023-01-17T05:16:30.974Z,979.91
2023-01-17T05:17:30.954Z,979.94
2023-01-17T05:18:30.931Z,979.98
2023-01-17T05:19:30.945Z,979.89
2023-01-17T05:20:30.928Z,979.93
2023-01-17T05:21:30.902Z,979.95
2023-01-17T05:22:30.896Z,979.97
2023-01-17T05:23:30.910Z,979.91
2023-01-17T05:24:30.880Z,979.95
2023-01-17T05:25:30.879Z,979.90
2023-01-17T05:26:30.836Z,979.92
2023-01-17T05:27:30.834Z,979.96
2023-01-17T05:28:30.835Z,979.90
2023-01-17T05:29:30.961Z,979.94
2023-01-17T05:30:30.817Z,979.86
2023-01-17T05:31:30.801Z,979.84
2023-01-17T05:32:30.799Z,979.86
2023-01-17T05:33:30.780Z,979.83
2023-01-17T05:34:30.758Z,979.85
2023-01-17T05:35:30.768Z,979.84
2023-01-17T05:36:30.767Z,979.82
2023-01-17T05:37:30.720Z,979.83
2023-01-17T05:38:30.701Z,979.83
2023-01-17T05:39:30.723Z,979.90
2023-01-17T05:40:30.703Z,979.94
2023-01-17T05:41:30.673Z,979.93
2023-01-17T05:42:30.672Z,979.89
2023-01-17T05:43:30.686Z,979.91
2023-01-17T05:44:30.655Z,979.90
2023-01-17T05:45:30.650Z,979.89
2023-01-17T05:46:30.717Z,979.92
2023-01-17T05:47:30.617Z,979.91
2023-01-17T05:48:30.597Z,979.86
2023-01-17T05:49:30.603Z,979.92
2023-01-17T05:50:30.597Z,979.91
2023-01-17T05:51:30.574Z,979.95
2023-01-17T05:52:30.574Z,979.98
2023-01-17T05:53:30.547Z,979.96
2023-01-17T05:54:30.542Z,980.04
2023-01-17T05:55:30.546Z,980.01
2023-01-17T05:56:30.517Z,980.04
2023-01-17T05:57:30.516Z,980.05
2023-01-17T05:58:30.500Z,980.09
2023-01-17T05:59:37.101Z,980.09
2023-01-17T06:00:31.463Z,980.08
2023-01-17T06:01:30.462Z,980.12
2023-01-17T06:02:30.495Z,980.13
2023-01-17T06:03:30.471Z,980.17
2023-01-17T06:04:30.471Z,980.13
2023-01-17T06:05:30.454Z,980.19
2023-01-17T06:06:30.414Z,980.19
2023-01-17T06:07:30.405Z,980.19
2023-01-17T06:08:30.402Z,980.22
2023-01-17T06:09:30.385Z,980.25
2023-01-17T06:10:30.377Z,980.22
2023-01-17T06:11:30.376Z,980.19
2023-01-17T06:12:30.340Z,980.28
2023-01-17T06:13:30.350Z,980.24
2023-01-17T06:14:30.346Z,980.19
2023-01-17T06:15:30.317Z,980.23
2023-01-17T06:16:30.320Z,980.22
2023-01-17T06:17:30.290Z,980.23
2023-01-17T06:18:30.314Z,980.21
2023-01-17T06:19:30.279Z,980.25
2023-01-17T06:20:30.256Z,980.21
2023-01-17T06:21:30.260Z,980.19
2023-01-17T06:22:30.228Z,980.21
2023-01-17T06:23:30.257Z,980.23
2023-01-17T06:24:30.230Z,980.22
2023-01-17T06:25:30.198Z,980.20
2023-01-17T06:26:30.270Z,980.16
2023-01-17T06:27:30.190Z,980.21
2023-01-17T06:28:30.186Z,980.21
2023-01-17T06:29:30.159Z,980.20
2023-01-17T06:30:30.137Z,980.20
2023-01-17T06:31:30.149Z,980.23
2023-01-17T06:32:30.190Z,980.20
2023-01-17T06:33:30.127Z,980.23
2023-01-17T06:34:30.111Z,980.23
2023-01-17T06:35:30.083Z,980.28
2023-01-17T06:36:30.078Z,980.27
2023-01-17T06:37:30.135Z,980.28
2023-01-17T06:38:30.076Z,980.28
2023-01-17T06:39:30.045Z,980.23
2023-01-17T06:40:30.030Z,980.31
2023-01-17T06:41:30.021Z,980.29
2023-01-17T06:42:30.042Z,980.29
2023-01-17T06:43:30.035Z,980.34
2023-01-17T06:44:29.994Z,980.32
2023-01-17T06:45:29.992Z,980.34
2023-01-17T06:46:29.990Z,980.36
2023-01-17T06:47:29.965Z,980.37
2023-01-17T06:48:29.973Z,980.37
2023-01-17T06:49:29.932Z,980.35
2023-01-17T06:50:29.937Z,980.36
2023-01-17T06:51:29.910Z,980.32
2023-01-17T06:52:29.909Z,980.40
2023-01-17T06:53:29.905Z,980.40
2023-01-17T06:54:29.901Z,980.38
2023-01-17T06:55:29.894Z,980.34
2023-01-17T06:56:29.854Z,980.32
2023-01-17T06:57:29.901Z,980.37
2023-01-17T06:58:29.859Z,980.38
2023-01-17T06:59:29.843Z,980.41
2023-01-17T07:00:29.948Z,980.37
2023-01-17T07:01:30.616Z,980.41
2023-01-17T07:02:29.836Z,980.41
2023-01-17T07:03:29.823Z,980.42
2023-01-17T07:04:29.749Z,980.43
2023-01-17T07:05:29.750Z,980.36
2023-01-17T07:06:29.812Z,980.38
2023-01-17T07:07:29.873Z,980.34
2023-01-17T07:08:29.727Z,980.36
2023-01-17T07:09:29.692Z,980.36
2023-01-17T07:10:29.848Z,980.35
2023-01-17T07:11:29.949Z,980.37
2023-01-17T07:12:29.728Z,980.40
2023-01-17T07:13:29.649Z,980.38
2023-01-17T07:14:29.632Z,980.36
2023-01-17T07:15:29.713Z,980.37
2023-01-17T07:16:29.696Z,980.38
2023-01-17T07:17:29.731Z,980.36
2023-01-17T07:18:29.691Z,980.41
2023-01-17T07:19:29.733Z,980.40
2023-01-17T07:20:29.571Z,980.42
2023-01-17T07:21:30.108Z,980.42
2023-01-17T07:22:29.576Z,980.41
2023-01-17T07:23:29.580Z,980.42
2023-01-17T07:24:29.622Z,980.47
2023-01-17T07:25:29.536Z,980.41
2023-01-17T07:26:29.541Z,980.45
2023-01-17T07:27:29.579Z,980.44
2023-01-17T07:28:29.496Z,980.43
2023-01-17T07:29:29.531Z,980.42
2023-01-17T07:30:29.481Z,980.44
2023-01-17T07:31:29.499Z,980.42
2023-01-17T07:32:29.445Z,980.43
2023-01-17T07:33:29.419Z,980.42
2023-01-17T07:34:29.448Z,980.43
2023-01-17T07:35:29.425Z,980.42
2023-01-17T07:36:29.432Z,980.46
2023-01-17T07:37:29.413Z,980.44
2023-01-17T07:38:29.428Z,980.45
2023-01-17T07:39:29.396Z,980.46
2023-01-17T07:40:29.376Z,980.44
2023-01-17T07:41:29.372Z,980.44
2023-01-17T07:42:29.440Z,980.50
2023-01-17T07:43:29.372Z,980.49
2023-01-17T07:44:29.321Z,980.49
2023-01-17T07:45:29.342Z,980.52
2023-01-17T07:46:29.376Z,980.48
2023-01-17T07:47:29.298Z,980.49
2023-01-17T07:48:29.261Z,980.50
2023-01-17T07:49:29.267Z,980.48
2023-01-17T07:50:29.252Z,980.49
2023-01-17T07:51:29.255Z,980.52
2023-01-17T07:52:29.238Z,980.44
2023-01-17T07:53:29.206Z,980.46
2023-01-17T07:54:29.216Z,980.44
2023-01-17T07:55:29.291Z,980.48
2023-01-17T07:56:29.191Z,980.43
2023-01-17T07:57:29.157Z,980.44
2023-01-17T07:58:29.147Z,980.45
2023-01-17T07:59:29.262Z,980.45
2023-01-17T08:00:29.226Z,980.43
2023-01-17T08:01:29.804Z,980.39
2023-01-17T08:02:29.357Z,980.37
2023-01-17T08:03:29.214Z,980.37
2023-01-17T08:04:29.262Z,980.35
2023-01-17T08:05:29.093Z,980.30
2023-01-17T08:06:29.057Z,980.29
2023-01-17T08:07:29.062Z,980.30
2023-01-17T08:08:29.053Z,980.34
2023-01-17T08:09:29.093Z,980.33
2023-01-17T08:10:29.033Z,980.28
2023-01-17T08:11:28.998Z,980.25
2023-01-17T08:12:29.026Z,980.32
2023-01-17T08:13:29.972Z,980.33
2023-01-17T08:14:29.059Z,980.29
2023-01-17T08:15:28.976Z,980.32
2023-01-17T08:16:29.015Z,980.32
2023-01-17T08:17:28.963Z,980.30
2023-01-17T08:18:28.934Z,980.32
2023-01-17T08:19:28.977Z,980.32
2023-01-17T08:20:28.977Z,980.30
2023-01-17T08:21:28.891Z,980.33
2023-01-17T08:22:29.167Z,980.29
2023-01-17T08:23:28.932Z,980.28
2023-01-17T08:24:28.903Z,980.23
2023-01-17T08:25:28.860Z,980.26
2023-01-17T08:26:28.884Z,980.27
2023-01-17T08:27:28.892Z,980.25
2023-01-17T08:28:28.924Z,980.25
2023-01-17T08:29:28.826Z,980.27
2023-01-17T08:30:28.832Z,980.30
2023-01-17T08:31:28.860Z,980.34
2023-01-17T08:32:28.790Z,980.30
2023-01-17T08:33:28.773Z,980.33
2023-01-17T08:34:29.123Z,980.32
2023-01-17T08:35:28.788Z,980.35
2023-01-17T08:36:28.752Z,980.37
2023-01-17T08:37:28.782Z,980.37
2023-01-17T08:38:28.709Z,980.43
2023-01-17T08:39:28.706Z,980.46
2023-01-17T08:40:28.694Z,980.45
2023-01-17T08:41:28.749Z,980.46
2023-01-17T08:42:28.671Z,980.48
2023-01-17T08:43:28.666Z,980.47
2023-01-17T08:44:28.646Z,980.48
2023-01-17T08:45:28.705Z,980.47
2023-01-17T08:46:29.330Z,980.44
2023-01-17T08:47:28.647Z,980.47
2023-01-17T08:48:28.618Z,980.48
2023-01-17T08:49:28.641Z,980.44
2023-01-17T08:50:28.577Z,980.40
2023-01-17T08:51:28.620Z,980.42
2023-01-17T08:52:28.586Z,980.40
2023-01-17T08:53:28.569Z,980.40
2023-01-17T08:54:28.559Z,980.39
2023-01-17T08:55:28.609Z,980.41
2023-01-17T08:56:28.505Z,980.38
2023-01-17T08:57:28.495Z,980.42
2023-01-17T08:58:30.449Z,980.44
2023-01-17T08:59:28.526Z,980.43
2023-01-17T09:00:28.492Z,980.43
2023-01-17T09:01:28.555Z,980.47
2023-01-17T09:02:28.508Z,980.53
2023-01-17T09:03:28.435Z,980.48
2023-01-17T09:04:28.493Z,980.50
2023-01-17T09:05:28.400Z,980.53
2023-01-17T09:06:28.404Z,980.52
2023-01-17T09:07:28.414Z,980.54
2023-01-17T09:08:28.364Z,980.52
2023-01-17T09:09:28.357Z,980.54
2023-01-17T09:10:28.360Z,980.52
2023-01-17T09:11:28.381Z,980.53
2023-01-17T09:12:28.371Z,980.51
2023-01-17T09:13:28.304Z,980.53
2023-01-17T09:14:28.314Z,980.52
2023-01-17T09:15:28.301Z,980.55
2023-01-17T09:16:28.316Z,980.52
2023-01-17T09:17:28.277Z,980.54
2023-01-17T09:18:28.264Z,980.54
2023-01-17T09:19:28.280Z,980.48
2023-01-17T09:20:28.251Z,980.47
2023-01-17T09:21:28.281Z,980.43
2023-01-17T09:22:28.208Z,980.47
2023-01-17T09:23:28.255Z,980.41
2023-01-17T09:24:28.215Z,980.40
2023-01-17T09:25:28.190Z,980.41
2023-01-17T09:26:28.185Z,980.43
2023-01-17T09:27:28.186Z,980.44
2023-01-17T09:28:28.163Z,980.48
2023-01-17T09:29:28.147Z,980.45
2023-01-17T09:30:28.154Z,980.43
2023-01-17T09:31:28.187Z,980.43
2023-01-17T09:32:28.131Z,980.39
2023-01-17T09:33:28.210Z,980.41
2023-01-17T09:34:28.094Z,980.39
2023-01-17T09:35:28.063Z,980.40
2023-01-17T09:36:28.133Z,980.36
2023-01-17T09:37:28.139Z,980.37
2023-01-17T09:38:28.585Z,980.37
2023-01-17T09:39:28.077Z,980.34
2023-01-17T09:40:28.997Z,980.34
2023-01-17T09:41:28.075Z,980.31
2023-01-17T09:42:28.053Z,980.37
2023-01-17T09:43:28.003Z,980.35
2023-01-17T09:44:28.060Z,980.35
2023-01-17T09:45:27.985Z,980.35
2023-01-17T09:46:27.970Z,980.38
2023-01-17T09:47:27.981Z,980.39
2023-01-17T09:48:27.944Z,980.42
2023-01-17T09:49:27.924Z,980.44
2023-01-17T09:50:27.914Z,980.46
2023-01-17T09:51:27.899Z,980.45
2023-01-17T09:52:27.911Z,980.48
2023-01-17T09:53:27.882Z,980.47
2023-01-17T09:54:27.889Z,980.49
2023-01-17T09:55:27.857Z,980.48
2023-01-17T09:56:27.886Z,980.49
2023-01-17T09:57:27.854Z,980.56
2023-01-17T09:58:27.859Z,980.55
2023-01-17T09:59:33.089Z,980.57
2023-01-17T10:00:28.802Z,980.55
2023-01-17T10:01:27.932Z,980.53
2023-01-17T10:02:28.037Z,980.53
2023-01-17T10:03:27.924Z,980.53
2023-01-17T10:04:27.765Z,980.52
2023-01-17T10:05:27.763Z,980.50
2023-01-17T10:06:27.744Z,980.51
2023-01-17T10:07:27.731Z,980.58
2023-01-17T10:08:27.731Z,980.53
2023-01-17T10:09:27.702Z,980.48
2023-01-17T10:10:27.670Z,980.54
2023-01-17T10:11:27.694Z,980.53
2023-01-17T10:12:27.674Z,980.55
2023-01-17T10:13:27.658Z,980.49
2023-01-17T10:14:27.649Z,980.51
2023-01-17T10:15:27.608Z,980.52
2023-01-17T10:16:27.687Z,980.51
2023-01-17T10:17:27.608Z,980.52
2023-01-17T10:18:30.642Z,980.48
2023-01-17T10:19:27.583Z,980.48
2023-01-17T10:20:27.621Z,980.50
2023-01-17T10:21:27.630Z,980.51
2023-01-17T10:22:27.571Z,980.47
2023-01-17T10:23:27.540Z,980.52
2023-01-17T10:24:27.515Z,980.47
2023-01-17T10:25:27.576Z,980.51
2023-01-17T10:26:27.527Z,980.52
2023-01-17T10:27:27.560Z,980.47
2023-01-17T10:28:27.477Z,980.56
2023-01-17T10:29:27.527Z,980.59
2023-01-17T10:30:27.489Z,980.53
2023-01-17T10:31:27.457Z,980.53
2023-01-17T10:32:27.435Z,980.56
2023-01-17T10:33:27.434Z,980.53
2023-01-17T10:34:27.476Z,980.53
2023-01-17T10:35:27.982Z,980.53
2023-01-17T10:36:27.435Z,980.52
2023-01-17T10:37:27.405Z,980.52
2023-01-17T10:38:27.374Z,980.52
2023-01-17T10:39:27.407Z,980.44
2023-01-17T10:40:27.380Z,980.45
2023-01-17T10:41:27.350Z,980.46
2023-01-17T10:42:27.312Z,980.53
2023-01-17T10:43:27.339Z,980.44
2023-01-17T10:44:27.301Z,980.47
2023-01-17T10:45:27.353Z,980.45
2023-01-17T10:46:27.392Z,980.45
2023-01-17T10:47:27.282Z,980.43
2023-01-17T10:48:27.261Z,980.43
2023-01-17T10:49:27.279Z,980.43
2023-01-17T10:50:27.258Z,980.44
2023-01-17T10:51:27.223Z,980.47
2023-01-17T10:52:27.239Z,980.42
2023-01-17T10:53:27.203Z,980.46
2023-01-17T10:54:27.215Z,980.41
2023-01-17T10:55:27.202Z,980.38
2023-01-17T10:56:27.168Z,980.38
2023-01-17T10:57:27.264Z,980.41
2023-01-17T10:58:27.191Z,980.39
2023-01-17T10:59:27.165Z,980.42
2023-01-17T11:00:27.168Z,980.37
2023-01-17T11:01:27.161Z,980.34
2023-01-17T11:02:27.214Z,980.37
2023-01-17T11:03:27.161Z,980.32
2023-01-17T11:04:27.099Z,980.33
2023-01-17T11:05:27.991Z,980.32
2023-01-17T11:06:27.551Z,980.28
2023-01-17T11:07:27.518Z,980.28
2023-01-17T11:08:27.049Z,980.25
2023-01-17T11:09:27.965Z,980.27
2023-01-17T11:10:27.590Z,980.25
2023-01-17T11:11:27.021Z,980.22
2023-01-17T11:12:26.971Z,980.17
2023-01-17T11:13:27.014Z,980.13
2023-01-17T11:14:26.972Z,980.10
2023-01-17T11:15:27.025Z,980.14
2023-01-17T11:16:27.711Z,980.14
2023-01-17T11:17:26.920Z,980.13
2023-01-17T11:18:26.951Z,980.17
2023-01-17T11:19:26.911Z,980.19
2023-01-17T11:20:26.890Z,980.14
2023-01-17T11:21:26.873Z,980.19
2023-01-17T11:22:26.889Z,980.11
2023-01-17T11:23:26.917Z,980.22
2023-01-17T11:24:26.884Z,980.18
2023-01-17T11:25:26.837Z,980.23
2023-01-17T11:26:26.831Z,980.20
2023-01-17T11:27:26.808Z,980.22
2023-01-17T11:28:26.811Z,980.20
2023-01-17T11:29:26.816Z,980.23
2023-01-17T11:30:26.866Z,980.20
2023-01-17T11:31:26.953Z,980.13
2023-01-17T11:32:26.745Z,980.14
2023-01-17T11:33:26.794Z,980.14
2023-01-17T11:34:26.753Z,980.08
2023-01-17T11:35:26.743Z,980.11
2023-01-17T11:36:26.718Z,980.12
2023-01-17T11:37:26.724Z,980.09
2023-01-17T11:38:26.719Z,980.14
2023-01-17T11:39:26.677Z,980.15
2023-01-17T11:40:26.736Z,980.15
2023-01-17T11:41:26.661Z,980.14
2023-01-17T11:42:26.679Z,980.13
2023-01-17T11:43:26.656Z,980.10
2023-01-17T11:44:26.635Z,980.11
2023-01-17T11:45:26.615Z,980.14
2023-01-17T11:46:26.666Z,980.06
2023-01-17T11:47:26.648Z,980.12
2023-01-17T11:48:26.600Z,980.12
2023-01-17T11:49:26.593Z,980.14
2023-01-17T11:50:26.568Z,980.15
2023-01-17T11:51:26.597Z,980.13
2023-01-17T11:52:26.561Z,980.15
2023-01-17T11:53:26.530Z,980.11
2023-01-17T11:54:26.539Z,980.10
2023-01-17T11:55:26.499Z,980.07
2023-01-17T11:56:26.535Z,980.05
2023-01-17T11:57:26.511Z,980.02
2023-01-17T11:58:26.474Z,980.03
2023-01-17T11:59:26.499Z,980.01
2023-01-17T12:00:26.452Z,979.97
2023-01-17T12:01:26.438Z,979.99
2023-01-17T12:02:26.467Z,979.98
2023-01-17T12:03:26.466Z,979.97
2023-01-17T12:04:26.522Z,979.93
2023-01-17T12:05:26.403Z,979.88
2023-01-17T12:06:26.406Z,979.90
2023-01-17T12:07:26.381Z,979.88
2023-01-17T12:08:26.413Z,979.89
2023-01-17T12:09:26.345Z,979.92
2023-01-17T12:10:26.344Z,979.88
2023-01-17T12:11:26.365Z,979.93
2023-01-17T12:12:26.331Z,979.95
2023-01-17T12:13:26.334Z,979.86
2023-01-17T12:14:26.304Z,979.87
2023-01-17T12:15:26.317Z,979.83
2023-01-17T12:16:26.288Z,979.90
2023-01-17T12:17:26.262Z,979.85
2023-01-17T12:18:26.314Z,979.77
2023-01-17T12:19:26.270Z,979.80
2023-01-17T12:20:26.230Z,979.79
2023-01-17T12:21:26.230Z,979.74
2023-01-17T12:22:26.233Z,979.74
2023-01-17T12:23:26.178Z,979.79
2023-01-17T12:24:26.181Z,979.76
2023-01-17T12:25:26.222Z,979.73
2023-01-17T12:26:26.180Z,979.72
2023-01-17T12:27:26.151Z,979.74
2023-01-17T12:28:26.180Z,979.69